createdAt,value
2022-11-19T12:16:57.192Z,91.10
2022-11-19T12:19:41.232Z,92.72
2022-11-19T12:22:15.558Z,91.85
2022-11-19T12:25:00.029Z,91.39
2022-11-19T12:27:35.296Z,91.94
2022-11-19T12:30:09.454Z,92.37
2022-11-19T12:32:52.635Z,92.05
2022-11-19T12:35:35.218Z,92.97
2022-11-19T12:38:38.685Z,91.79
2022-11-19T12:41:22.808Z,92.47
2022-11-19T12:43:56.869Z,91.87
2022-11-19T12:46:47.601Z,92.33
2022-11-19T12:49:42.868Z,92.02
2022-11-19T12:52:26.480Z,92.13
2022-11-19T12:55:05.122Z,92.37
2022-11-19T12:57:45.130Z,93.12
2022-11-19T13:00:18.854Z,92.80
2022-11-19T13:02:56.339Z,93.05
2022-11-19T13:05:35.187Z,92.71
2022-11-19T13:08:07.504Z,92.77
2022-11-19T13:10:40.800Z,92.81
2022-11-19T13:13:15.368Z,91.75
2022-11-19T13:15:49.270Z,91.13
2022-11-19T13:18:20.564Z,91.35
2022-11-19T13:20:53.452Z,91.95
2022-11-19T13:23:25.810Z,91.85
2022-11-19T13:25:59.504Z,91.69
2022-11-19T13:28:33.758Z,92.07
2022-11-19T13:31:07.472Z,92.94
2022-11-19T13:33:41.475Z,92.08
2022-11-19T13:36:19.632Z,92.83
2022-11-19T13:38:53.595Z,93.02
2022-11-19T13:41:25.555Z,92.80
2022-11-19T13:44:14.165Z,92.74
2022-11-19T13:47:14.465Z,93.19
2022-11-19T13:49:47.968Z,93.64
2022-11-19T13:52:26.624Z,93.28
2022-11-19T13:54:55.870Z,92.98
2022-11-19T13:57:29.367Z,93.29
2022-11-19T14:00:05.111Z,92.55
2022-11-19T14:03:09.543Z,92.46
2022-11-19T14:06:03.079Z,92.51
2022-11-19T14:08:58.706Z,93.44
2022-11-19T14:11:46.696Z,93.56
2022-11-19T14:14:45.838Z,93.05
2022-11-19T14:18:01.160Z,92.41
2022-11-19T14:21:01.469Z,92.15
2022-11-19T14:24:01.226Z,91.71
2022-11-19T14:27:09.486Z,91.20
2022-11-19T14:30:03.668Z,91.76
2022-11-19T14:32:43.966Z,91.43
2022-11-19T14:35:38.002Z,91.52
2022-11-19T14:38:36.156Z,90.67
2022-11-19T14:41:21.346Z,90.45
2022-11-19T14:44:21.684Z,89.68
2022-11-19T14:46:51.621Z,88.81
2022-11-19T14:49:25.754Z,89.86
2022-11-19T14:51:56.455Z,90.42
2022-11-19T14:54:39.320Z,90.48
2022-11-19T14:57:16.777Z,90.72
2022-11-19T14:59:48.637Z,90.48
2022-11-19T15:02:27.679Z,90.78
2022-11-19T15:05:00.970Z,91.44
2022-11-19T15:07:38.871Z,92.67
2022-11-19T15:10:29.384Z,91.31
2022-11-19T15:13:17.067Z,91.38
2022-11-19T15:15:46.249Z,92.26
2022-11-19T15:18:44.801Z,93.09
2022-11-19T15:21:28.014Z,93.28
2022-11-19T15:24:10.219Z,93.22
2022-11-19T15:26:46.564Z,93.44
2022-11-19T15:29:24.050Z,94.10
2022-11-19T15:32:32.935Z,93.45
2022-11-19T15:35:21.384Z,94.18
2022-11-19T15:37:54.522Z,94.04
2022-11-19T15:40:29.093Z,93.71
2022-11-19T15:43:07.925Z,94.09
2022-11-19T15:45:46.460Z,93.89
2022-11-19T15:48:17.671Z,94.25
2022-11-19T15:50:48.863Z,93.42
2022-11-19T15:53:22.367Z,94.04
2022-11-19T15:55:55.252Z,94.03
2022-11-19T15:58:34.501Z,94.44
2022-11-19T16:01:03.478Z,93.63
2022-11-19T16:03:32.969Z,94.03
2022-11-19T16:06:07.144Z,93.94
2022-11-19T16:08:38.101Z,94.42
2022-11-19T16:11:26.930Z,94.92
2022-11-19T16:14:13.565Z,95.37
2022-11-19T16:17:00.735Z,94.23
2022-11-19T16:19:28.939Z,95.27
2022-11-19T16:22:01.180Z,96.00
2022-11-19T16:24:48.647Z,95.44
2022-11-19T16:27:26.892Z,95.60
2022-11-19T16:29:55.402Z,95.86
2022-11-19T16:32:26.441Z,96.35
2022-11-19T16:35:09.674Z,96.11
2022-11-19T16:37:44.901Z,95.34
2022-11-19T16:40:17.288Z,94.97
2022-11-19T16:42:51.142Z,95.40
2022-11-19T16:46:36.054Z,95.14
2022-11-19T16:49:19.913Z,95.23
2022-11-19T16:51:54.421Z,95.80
2022-11-19T16:54:47.268Z,95.41
2022-11-19T16:57:18.021Z,93.87
2022-11-19T16:59:51.496Z,93.39
2022-11-19T17:02:21.844Z,93.65
2022-11-19T17:04:53.064Z,93.42
2022-11-19T17:07:27.517Z,94.34
2022-11-19T17:10:29.177Z,94.19
2022-11-19T17:13:06.971Z,94.46
2022-11-19T17:15:38.732Z,93.93
2022-11-19T17:18:16.171Z,94.83
2022-11-19T17:20:52.608Z,94.10
2022-11-19T17:23:23.176Z,94.01
2022-11-19T17:25:55.085Z,93.96
2022-11-19T17:28:31.301Z,94.68
2022-11-19T17:31:06.133Z,94.57
2022-11-19T17:33:39.388Z,94.54
2022-11-19T17:36:16.672Z,93.79
2022-11-19T17:38:45.089Z,94.41
2022-11-19T17:41:38.200Z,94.58
2022-11-19T17:44:31.865Z,94.53
2022-11-19T17:48:14.487Z,94.53
2022-11-19T17:50:59.469Z,94.68
2022-11-19T17:54:02.884Z,95.26
2022-11-19T17:56:36.266Z,94.83
2022-11-19T18:06:01.579Z,94.39
2022-11-19T18:12:37.598Z,94.31
2022-11-19T18:15:12.746Z,94.43
2022-11-19T18:20:12.620Z,94.74
2022-11-19T18:22:41.121Z,95.57
2022-11-19T18:25:21.661Z,94.96
2022-11-19T18:27:49.786Z,95.17
2022-11-19T18:30:19.126Z,94.66
2022-11-19T18:32:48.386Z,95.26
2022-11-19T18:35:18.240Z,95.41
2022-11-19T18:37:46.208Z,95.00
2022-11-19T18:40:15.791Z,95.50
2022-11-19T18:43:03.985Z,95.15
2022-11-19T18:45:32.186Z,95.60
2022-11-19T18:48:00.095Z,95.77
2022-11-19T18:50:30.042Z,95.30
2022-11-19T18:52:58.519Z,94.86
2022-11-19T18:55:26.762Z,95.96
2022-11-19T18:57:54.810Z,95.98
2022-11-19T19:00:22.710Z,94.88
2022-11-19T19:02:52.048Z,95.50
2022-11-19T19:05:22.153Z,94.57
2022-11-19T19:07:50.149Z,94.88
2022-11-19T19:10:18.262Z,95.38
2022-11-19T19:12:46.246Z,95.41
2022-11-19T19:15:15.502Z,95.47
2022-11-19T19:17:43.613Z,95.61
2022-11-19T19:20:13.895Z,95.50
2022-11-19T19:22:41.775Z,95.25
2022-11-19T19:25:10.822Z,95.54
2022-11-19T19:27:38.723Z,96.64
2022-11-19T19:30:09.375Z,96.64
2022-11-19T19:32:37.395Z,96.17
2022-11-19T19:35:05.886Z,95.84
2022-11-19T19:37:35.143Z,96.24
2022-11-19T19:40:03.023Z,95.69
2022-11-19T19:42:30.942Z,96.21
2022-11-19T19:44:59.410Z,96.79
2022-11-19T19:47:27.367Z,95.67
2022-11-19T19:49:55.263Z,95.82
2022-11-19T19:52:23.160Z,95.79
2022-11-19T19:54:53.781Z,95.92
2022-11-19T19:57:21.645Z,95.75
2022-11-19T19:59:49.525Z,95.34
2022-11-19T20:02:17.425Z,95.68
2022-11-19T20:04:45.385Z,95.55
2022-11-19T20:07:13.275Z,96.25
2022-11-19T20:09:41.192Z,95.60
2022-11-19T20:12:10.567Z,96.19
2022-11-19T20:14:38.872Z,95.81
2022-11-19T20:17:06.779Z,96.94
2022-11-19T20:19:34.717Z,95.81
2022-11-19T20:22:02.599Z,96.17
2022-11-19T20:24:30.598Z,97.01
2022-11-19T20:26:58.674Z,97.14
2022-11-19T20:29:28.561Z,96.19
2022-11-19T20:31:56.477Z,95.90
2022-11-19T20:34:24.286Z,97.08
2022-11-19T20:36:53.877Z,97.49
2022-11-19T20:39:22.091Z,97.28
2022-11-19T20:42:07.684Z,97.53
2022-11-19T20:44:37.320Z,97.32
2022-11-19T20:47:05.842Z,98.00
2022-11-19T20:49:35.468Z,98.06
2022-11-19T20:52:03.737Z,97.22
2022-11-19T20:54:32.130Z,98.33
2022-11-19T20:57:00.634Z,96.98
2022-11-19T20:59:28.825Z,96.82
2022-11-19T21:01:58.529Z,96.54
2022-11-19T21:04:28.592Z,96.79
2022-11-19T21:06:56.588Z,97.39
2022-11-19T21:09:25.265Z,96.75
2022-11-19T21:11:53.428Z,97.40
2022-11-19T21:14:21.324Z,97.11
2022-11-19T21:16:49.287Z,96.40
2022-11-19T21:19:19.073Z,97.36
2022-11-19T21:21:47.188Z,97.96
2022-11-19T21:24:15.314Z,97.31
2022-11-19T21:26:44.400Z,97.96
2022-11-19T21:29:12.669Z,97.11
2022-11-19T21:31:42.228Z,97.55
2022-11-19T21:34:12.730Z,98.26
2022-11-19T21:36:43.493Z,98.43
2022-11-19T21:39:12.548Z,97.71
2022-11-19T21:41:40.441Z,97.73
2022-11-19T21:44:08.573Z,96.47
2022-11-19T21:46:36.854Z,96.94
2022-11-19T21:49:05.511Z,97.38
2022-11-19T21:51:33.569Z,97.45
2022-11-19T21:54:02.855Z,97.09
2022-11-19T21:56:36.876Z,98.11
2022-11-19T21:59:06.652Z,97.61
2022-11-19T22:01:34.572Z,97.69
2022-11-19T22:04:02.407Z,96.82
2022-11-19T22:06:31.715Z,97.01
2022-11-19T22:08:59.571Z,96.49
2022-11-19T22:11:31.842Z,97.39
2022-11-19T22:14:02.047Z,97.30
2022-11-19T22:16:30.675Z,96.72
2022-11-19T22:18:58.510Z,96.23
2022-11-19T22:21:27.159Z,96.59
2022-11-19T22:23:55.126Z,97.36
2022-11-19T22:26:23.034Z,96.43
2022-11-19T22:28:52.266Z,96.58
2022-11-19T22:31:20.216Z,96.72
2022-11-19T22:33:51.568Z,95.93
2022-11-19T22:36:21.121Z,96.43
2022-11-19T22:38:49.125Z,96.47
2022-11-19T22:41:19.034Z,95.73
2022-11-19T22:43:47.294Z,95.93
2022-11-19T22:46:17.009Z,96.17
2022-11-19T22:48:44.989Z,95.93
2022-11-19T22:51:15.036Z,96.83
2022-11-19T22:53:43.539Z,95.66
2022-11-19T22:56:13.495Z,95.62
2022-11-19T22:58:41.890Z,96.67
2022-11-19T23:01:17.669Z,96.17
2022-11-19T23:03:45.809Z,95.09
2022-11-19T23:06:13.990Z,95.24
2022-11-19T23:08:42.518Z,94.70
2022-11-19T23:11:10.734Z,94.86
2022-11-19T23:13:39.663Z,94.60
2022-11-19T23:16:09.296Z,96.11
2022-11-19T23:18:40.191Z,96.10
2022-11-19T23:21:10.103Z,95.56
2022-11-19T23:23:38.223Z,96.23
2022-11-19T23:26:07.629Z,97.00
2022-11-19T23:28:37.468Z,96.18
2022-11-19T23:31:06.693Z,96.00
2022-11-19T23:33:34.531Z,96.11
2022-11-19T23:36:05.396Z,95.99
2022-11-19T23:38:33.491Z,96.01
2022-11-19T23:41:01.967Z,96.45
2022-11-19T23:43:30.434Z,95.24
2022-11-19T23:46:04.863Z,96.80
2022-11-19T23:48:33.133Z,96.86
2022-11-19T23:51:02.403Z,96.61
2022-11-19T23:53:31.779Z,96.93
2022-11-19T23:56:00.631Z,97.22
2022-11-19T23:58:29.218Z,96.96
